Time,TemperatureF,DewpointF,PressureIn,WindDirection,WindDirectionDegrees,WindSpeedMPH,WindSpeedGustMPH,Humidity,HourlyPrecipIn,Conditions,Clouds,dailyrainin,SoftwareType,DateUTC
2013-08-14 00:00:00,64.3,61.3,29.91,East,84,1.0,15.0,90,0.00,,,0.00,Wunderground v.1.15,2013-08-14 03:00:00,
2013-08-14 00:05:00,64.3,61.3,29.88,SE,131,1.0,15.0,90,0.00,,,0.00,Wunderground v.1.15,2013-08-14 03:05:00,
2013-08-14 00:10:00,64.3,61.3,29.90,East,90,1.0,15.0,90,0.00,,,0.00,Wunderground v.1.15,2013-08-14 03:10:00,
2013-08-14 00:15:00,64.2,61.2,29.90,ESE,118,1.0,15.0,90,0.00,,,0.00,Wunderground v.1.15,2013-08-14 03:15:00,
2013-08-14 00:20:00,64.2,61.2,29.90,ESE,106,1.0,15.0,90,0.00,,,0.00,Wunderground v.1.15,2013-08-14 03:20:00,
2013-08-14 00:25:00,64.2,61.2,29.90,SE,140,1.0,15.0,90,0.00,,,0.00,Wunderground v.1.15,2013-08-14 03:25:00,
2013-08-14 00:30:00,64.2,61.2,29.88,South,184,2.0,2.0,90,0.00,,,0.00,Wunderground v.1.15,2013-08-14 03:30:00,
2013-08-14 00:35:00,64.1,61.1,29.91,SE,143,2.0,15.0,90,0.00,,,0.00,Wunderground v.1.15,2013-08-14 03:35:00,
2013-08-14 00:40:00,64.1,61.1,29.91,SE,137,1.0,15.0,90,0.00,,,0.00,Wunderground v.1.15,2013-08-14 03:40:00,
2013-08-14 00:45:00,64.1,61.1,29.91,SE,125,1.0,15.0,90,0.00,,,0.00,Wunderground v.1.15,2013-08-14 03:45:00,
2013-08-14 00:50:00,64.0,61.0,29.91,SW,221,1.0,1.0,90,0.00,,,0.00,Wunderground v.1.15,2013-08-14 03:50:00,
2013-08-14 00:55:00,64.0,61.0,29.92,SE,128,0.0,15.0,90,0.00,,,0.00,Wunderground v.1.15,2013-08-14 03:55:00,
2013-08-14 01:05:00,64.0,61.0,29.92,ESE,122,1.0,15.0,90,0.00,,,0.00,Wunderground v.1.15,2013-08-14 04:05:00,
2013-08-14 01:10:00,64.0,61.3,29.91,East,96,1.0,15.0,91,0.00,,,0.00,Wunderground v.1.15,2013-08-14 04:10:00,
2013-08-14 01:15:00,64.0,61.3,29.91,East,96,1.0,15.0,91,0.00,,,0.00,Wunderground v.1.15,2013-08-14 04:15:00,
2013-08-14 01:20:00,64.0,61.3,29.90,ESE,119,2.0,15.0,91,0.00,,,0.00,Wunderground v.1.15,2013-08-14 04:20:00,
2013-08-14 01:25:00,64.0,61.3,29.90,East,87,2.0,15.0,91,0.00,,,0.00,Wunderground v.1.15,2013-08-14 04:25:00,
2013-08-14 01:30:00,64.0,61.3,29.90,SE,128,2.0,2.0,91,0.00,,,0.00,Wunderground v.1.15,2013-08-14 04:30:00,
2013-08-14 01:35:00,64.0,61.3,29.90,ESE,105,2.0,15.0,91,0.00,,,0.00,Wunderground v.1.15,2013-08-14 04:35:00,
2013-08-14 01:40:00,63.9,61.2,29.90,ESE,110,1.0,15.0,91,0.00,,,0.00,Wunderground v.1.15,2013-08-14 04:40:00,
2013-08-14 01:45:00,63.9,61.2,29.89,East,87,2.0,15.0,91,0.00,,,0.00,Wunderground v.1.15,2013-08-14 04:45:00,
2013-08-14 01:50:00,63.9,61.5,29.89,ESE,113,2.0,15.0,92,0.00,,,0.00,Wunderground v.1.15,2013-08-14 04:50:00,
2013-08-14 01:55:00,63.9,61.5,29.90,SE,139,2.0,15.0,92,0.00,,,0.00,Wunderground v.1.15,2013-08-14 04:55:00,
2013-08-14 02:00:00,63.9,61.5,29.89,ESE,115,2.0,2.0,92,0.00,,,0.00,Wunderground v.1.15,2013-08-14 05:00:00,
2013-08-14 02:10:00,63.8,61.4,29.89,SSE,147,1.0,15.0,92,0.00,,,0.00,Wunderground v.1.15,2013-08-14 05:10:00,
2013-08-14 02:15:00,63.8,61.4,29.89,ESE,105,1.0,15.0,92,0.00,,,0.00,Wunderground v.1.15,2013-08-14 05:15:00,
2013-08-14 02:20:00,63.8,61.4,29.89,SE,134,1.0,15.0,92,0.00,,,0.00,Wunderground v.1.15,2013-08-14 05:20:00,
2013-08-14 02:25:00,63.8,61.4,29.88,ESE,114,1.0,15.0,92,0.00,,,0.00,Wunderground v.1.15,2013-08-14 05:25:00,
2013-08-14 02:30:00,63.8,61.4,29.88,ESE,121,1.0,1.0,92,0.00,,,0.00,Wunderground v.1.15,2013-08-14 05:30:00,
2013-08-14 02:40:00,63.9,61.5,29.87,East,100,1.0,1.0,92,0.00,,,0.00,Wunderground v.1.15,2013-08-14 05:40:00,
2013-08-14 02:45:00,63.9,61.5,29.87,East,86,1.0,15.0,92,0.00,,,0.00,Wunderground v.1.15,2013-08-14 05:45:00,
2013-08-14 02:50:00,63.9,61.5,29.87,East,97,1.0,15.0,92,0.00,,,0.00,Wunderground v.1.15,2013-08-14 05:50:00,
2013-08-14 02:55:00,63.8,61.4,29.87,East,95,1.0,15.0,92,0.00,,,0.00,Wunderground v.1.15,2013-08-14 05:55:00,
2013-08-14 03:00:00,63.8,61.4,29.86,East,79,1.0,15.0,92,0.00,,,0.00,Wunderground v.1.15,2013-08-14 06:00:00,
2013-08-14 03:05:00,63.7,61.6,29.86,ESE,109,1.0,15.0,93,0.00,,,0.00,Wunderground v.1.15,2013-08-14 06:05:00,
2013-08-14 03:15:00,63.6,61.5,29.86,SE,124,1.0,15.0,93,0.00,,,0.00,Wunderground v.1.15,2013-08-14 06:15:00,
2013-08-14 03:20:00,63.6,61.5,29.86,East,82,1.0,1.0,93,0.00,,,0.00,Wunderground v.1.15,2013-08-14 06:20:00,
2013-08-14 03:25:00,63.6,61.5,29.86,East,82,1.0,15.0,93,0.00,,,0.00,Wunderground v.1.15,2013-08-14 06:25:00,
2013-08-14 03:30:00,63.6,61.5,29.85,East,88,0.0,15.0,93,0.00,,,0.00,Wunderground v.1.15,2013-08-14 06:30:00,
2013-08-14 03:35:00,63.5,61.4,29.85,NE,50,1.0,15.0,93,0.00,,,0.00,Wunderground v.1.15,2013-08-14 06:35:00,
2013-08-14 03:45:00,63.6,61.5,29.85,ENE,73,0.0,15.0,93,0.00,,,0.00,Wunderground v.1.15,2013-08-14 06:45:00,
2013-08-14 03:50:00,63.5,61.4,29.82,ESE,109,1.0,1.0,93,0.00,,,0.00,Wunderground v.1.15,2013-08-14 06:50:00,
2013-08-14 03:55:00,63.6,61.5,29.85,SE,134,1.0,15.0,93,0.00,,,0.00,Wunderground v.1.15,2013-08-14 06:55:00,
2013-08-14 04:00:00,63.6,61.5,29.85,ESE,118,0.0,15.0,93,0.00,,,0.00,Wunderground v.1.15,2013-08-14 07:00:00,
2013-08-14 04:05:00,63.6,61.5,29.85,SE,129,0.0,15.0,93,0.00,,,0.00,Wunderground v.1.15,2013-08-14 07:05:00,
2013-08-14 04:10:00,63.7,61.9,29.85,East,94,0.0,15.0,94,0.00,,,0.00,Wunderground v.1.15,2013-08-14 07:10:00,
2013-08-14 04:20:00,63.7,61.9,29.84,ESE,104,1.0,1.0,94,0.00,,,0.00,Wunderground v.1.15,2013-08-14 07:20:00,
2013-08-14 04:25:00,63.7,61.9,29.84,East,86,1.0,15.0,94,0.00,,,0.00,Wunderground v.1.15,2013-08-14 07:25:00,
2013-08-14 04:30:00,63.8,62.0,29.81,East,88,0.0,15.0,94,0.00,,,0.00,Wunderground v.1.15,2013-08-14 07:30:00,
2013-08-14 04:35:00,63.8,62.0,29.83,East,95,0.0,15.0,94,0.00,,,0.00,Wunderground v.1.15,2013-08-14 07:35:00,
2013-08-14 04:40:00,63.9,62.1,29.83,ESE,102,0.0,15.0,94,0.00,,,0.00,Wunderground v.1.15,2013-08-14 07:40:00,
2013-08-14 04:50:00,63.9,62.1,29.83,ESE,111,1.0,15.0,94,0.00,,,0.00,Wunderground v.1.15,2013-08-14 07:50:00,
2013-08-14 04:55:00,63.9,62.1,29.82,East,97,1.0,15.0,94,0.00,,,0.00,Wunderground v.1.15,2013-08-14 07:55:00,
2013-08-14 05:00:00,63.9,62.1,29.82,ENE,71,1.0,15.0,94,0.00,,,0.00,Wunderground v.1.15,2013-08-14 08:00:00,
2013-08-14 05:05:00,63.9,62.1,29.82,East,86,1.0,15.0,94,0.00,,,0.00,Wunderground v.1.15,2013-08-14 08:05:00,
2013-08-14 05:10:00,63.8,62.0,29.82,ENE,77,1.0,15.0,94,0.00,,,0.00,Wunderground v.1.15,2013-08-14 08:10:00,
2013-08-14 05:15:00,63.8,62.0,29.82,East,84,1.0,15.0,94,0.00,,,0.00,Wunderground v.1.15,2013-08-14 08:15:00,
2013-08-14 05:20:00,63.9,62.1,29.82,East,82,1.0,1.0,94,0.00,,,0.00,Wunderground v.1.15,2013-08-14 08:20:00,
2013-08-14 05:25:00,64.0,62.2,29.82,East,88,1.0,15.0,94,0.00,,,0.00,Wunderground v.1.15,2013-08-14 08:25:00,
2013-08-14 05:30:00,64.0,62.2,29.82,East,84,1.0,1.0,94,0.00,,,0.00,Wunderground v.1.15,2013-08-14 08:30:00,
2013-08-14 05:35:00,64.1,62.3,29.82,East,99,1.0,15.0,94,0.00,,,0.00,Wunderground v.1.15,2013-08-14 08:35:00,
2013-08-14 05:40:00,64.1,62.3,29.81,East,87,1.0,15.0,94,0.00,,,0.00,Wunderground v.1.15,2013-08-14 08:40:00,
2013-08-14 05:45:00,64.2,62.4,29.82,East,87,1.0,15.0,94,0.00,,,0.00,Wunderground v.1.15,2013-08-14 08:45:00,
2013-08-14 05:55:00,64.4,62.9,29.82,East,90,1.0,15.0,95,0.00,,,0.00,Wunderground v.1.15,2013-08-14 08:55:00,
2013-08-14 06:00:00,64.5,63.0,29.82,ESE,103,2.0,15.0,95,0.00,,,0.00,Wunderground v.1.15,2013-08-14 09:00:00,
2013-08-14 06:05:00,64.5,63.0,29.83,East,94,2.0,15.0,95,0.00,,,0.00,Wunderground v.1.15,2013-08-14 09:05:00,
2013-08-14 06:10:00,64.5,63.0,29.82,ENE,78,2.0,2.0,95,0.00,,,0.00,Wunderground v.1.15,2013-08-14 09:10:00,
2013-08-14 06:15:00,64.5,63.0,29.82,East,92,2.0,15.0,95,0.00,,,0.00,Wunderground v.1.15,2013-08-14 09:15:00,
2013-08-14 06:25:00,64.5,63.0,29.82,East,80,1.0,15.0,95,0.00,,,0.00,Wunderground v.1.15,2013-08-14 09:25:00,
2013-08-14 06:30:00,64.5,63.0,29.82,ENE,77,1.0,1.0,95,0.00,,,0.00,Wunderground v.1.15,2013-08-14 09:30:00,
2013-08-14 06:35:00,64.5,63.0,29.82,East,85,1.0,15.0,95,0.00,,,0.00,Wunderground v.1.15,2013-08-14 09:35:00,
2013-08-14 06:40:00,64.6,63.1,29.82,East,93,1.0,1.0,95,0.00,,,0.00,Wunderground v.1.15,2013-08-14 09:40:00,
2013-08-14 06:45:00,64.6,63.1,29.83,East,84,0.0,2.0,95,0.00,,,0.00,Wunderground v.1.15,2013-08-14 09:45:00,
2013-08-14 06:50:00,64.6,63.4,29.83,East,97,1.0,1.0,96,0.00,,,0.00,Wunderground v.1.15,2013-08-14 09:50:00,
2013-08-14 07:00:00,64.7,63.5,29.83,East,80,0.0,15.0,96,0.00,,,0.00,Wunderground v.1.15,2013-08-14 10:00:00,
2013-08-14 07:05:00,64.7,63.5,29.80,East,80,0.0,15.0,96,0.00,,,0.00,Wunderground v.1.15,2013-08-14 10:05:00,
2013-08-14 07:10:00,64.7,63.5,29.83,East,85,0.0,15.0,96,0.00,,,0.00,Wunderground v.1.15,2013-08-14 10:10:00,
2013-08-14 07:15:00,64.8,63.6,29.83,East,85,0.0,15.0,96,0.00,,,0.00,Wunderground v.1.15,2013-08-14 10:15:00,
2013-08-14 07:20:00,64.9,63.7,29.82,East,85,0.0,15.0,96,0.00,,,0.00,Wunderground v.1.15,2013-08-14 10:20:00,
2013-08-14 07:30:00,65.0,63.8,29.83,ESE,103,0.0,15.0,96,0.00,,,0.00,Wunderground v.1.15,2013-08-14 10:30:00,
2013-08-14 07:35:00,64.9,63.7,29.83,East,90,0.0,15.0,96,0.00,,,0.00,Wunderground v.1.15,2013-08-14 10:35:00,
2013-08-14 07:40:00,64.9,63.7,29.83,East,90,0.0,15.0,96,0.00,,,0.00,Wunderground v.1.15,2013-08-14 10:40:00,
2013-08-14 07:45:00,65.0,63.8,29.83,East,90,0.0,15.0,96,0.00,,,0.00,Wunderground v.1.15,2013-08-14 10:45:00,
2013-08-14 07:50:00,65.1,63.9,29.82,East,90,0.0,15.0,96,0.00,,,0.00,Wunderground v.1.15,2013-08-14 10:50:00,
2013-08-14 07:55:00,65.1,63.9,29.82,ENE,64,0.0,15.0,96,0.00,,,0.00,Wunderground v.1.15,2013-08-14 10:55:00,
2013-08-14 08:05:00,65.1,63.9,29.81,East,98,0.0,15.0,96,0.00,,,0.00,Wunderground v.1.15,2013-08-14 11:05:00,
2013-08-14 08:10:00,65.1,63.9,29.79,East,82,0.0,15.0,96,0.00,,,0.00,Wunderground v.1.15,2013-08-14 11:10:00,
2013-08-14 08:15:00,65.2,64.0,29.81,East,94,1.0,15.0,96,0.00,,,0.00,Wunderground v.1.15,2013-08-14 11:15:00,
2013-08-14 08:20:00,65.3,64.1,29.81,ENE,68,1.0,15.0,96,0.00,,,0.00,Wunderground v.1.15,2013-08-14 11:20:00,
2013-08-14 08:25:00,65.5,64.3,29.82,ESE,122,1.0,15.0,96,0.00,,,0.00,Wunderground v.1.15,2013-08-14 11:25:00,
2013-08-14 08:35:00,65.7,64.5,29.81,ESE,110,1.0,15.0,96,0.00,,,0.00,Wunderground v.1.15,2013-08-14 11:35:00,
2013-08-14 08:40:00,65.7,64.5,29.81,East,92,1.0,15.0,96,0.00,,,0.00,Wunderground v.1.15,2013-08-14 11:40:00,
2013-08-14 08:45:00,65.8,64.6,29.81,East,94,1.0,15.0,96,0.00,,,0.00,Wunderground v.1.15,2013-08-14 11:45:00,
2013-08-14 08:50:00,65.8,64.6,29.81,SE,124,1.0,15.0,96,0.00,,,0.00,Wunderground v.1.15,2013-08-14 11:50:00,
2013-08-14 08:55:00,66.0,64.8,29.81,ESE,113,1.0,15.0,96,0.00,,,0.00,Wunderground v.1.15,2013-08-14 11:55:00,
2013-08-14 09:00:00,66.1,64.9,29.82,South,179,1.0,1.0,96,0.00,,,0.00,Wunderground v.1.15,2013-08-14 12:00:00,
2013-08-14 09:05:00,66.3,65.1,29.81,SSE,151,1.0,15.0,96,0.00,,,0.00,Wunderground v.1.15,2013-08-14 12:05:00,
2013-08-14 09:10:00,66.4,65.2,29.81,SE,139,0.0,15.0,96,0.00,,,0.00,Wunderground v.1.15,2013-08-14 12:10:00,
2013-08-14 09:15:00,66.4,65.2,29.81,East,85,0.0,15.0,96,0.00,,,0.00,Wunderground v.1.15,2013-08-14 12:15:00,
2013-08-14 09:20:00,66.4,65.2,29.78,ESE,115,0.0,15.0,96,0.00,,,0.00,Wunderground v.1.15,2013-08-14 12:20:00,
2013-08-14 09:25:00,66.6,65.4,29.81,SSE,150,1.0,15.0,96,0.00,,,0.00,Wunderground v.1.15,2013-08-14 12:25:00,
2013-08-14 09:30:00,66.7,65.5,29.81,East,86,1.0,15.0,96,0.00,,,0.00,Wunderground v.1.15,2013-08-14 12:30:00,
2013-08-14 09:40:00,66.8,65.3,29.78,SE,137,1.0,1.0,95,0.00,,,0.00,Wunderground v.1.15,2013-08-14 12:40:00,
2013-08-14 09:45:00,66.9,65.4,29.81,ESE,105,1.0,15.0,95,0.00,,,0.00,Wunderground v.1.15,2013-08-14 12:45:00,
2013-08-14 09:50:00,67.0,65.5,29.81,ESE,105,1.0,15.0,95,0.00,,,0.00,Wunderground v.1.15,2013-08-14 12:50:00,
2013-08-14 09:55:00,67.0,65.5,29.81,ESE,107,1.0,15.0,95,0.00,,,0.00,Wunderground v.1.15,2013-08-14 12:55:00,
2013-08-14 10:00:00,67.1,65.3,29.81,SE,133,1.0,15.0,94,0.00,,,0.00,Wunderground v.1.15,2013-08-14 13:00:00,
2013-08-14 10:10:00,67.2,65.4,29.81,East,88,1.0,15.0,94,0.00,,,0.00,Wunderground v.1.15,2013-08-14 13:10:00,
2013-08-14 10:20:00,67.2,65.4,29.80,SE,133,2.0,2.0,94,0.00,,,0.00,Wunderground v.1.15,2013-08-14 13:20:00,
2013-08-14 10:25:00,67.4,65.6,29.81,ESE,121,1.0,15.0,94,0.00,,,0.00,Wunderground v.1.15,2013-08-14 13:25:00,
2013-08-14 10:30:00,67.6,65.5,29.81,SE,145,2.0,15.0,93,0.00,,,0.00,Wunderground v.1.15,2013-08-14 13:30:00,
2013-08-14 10:35:00,67.7,65.6,29.80,SE,144,1.0,15.0,93,0.00,,,0.00,Wunderground v.1.15,2013-08-14 13:35:00,
2013-08-14 10:40:00,68.1,66.0,29.80,SSW,203,1.0,1.0,93,0.00,,,0.00,Wunderground v.1.15,2013-08-14 13:40:00,
2013-08-14 10:45:00,68.3,65.6,29.80,SSE,150,1.0,15.0,91,0.00,,,0.00,Wunderground v.1.15,2013-08-14 13:45:00,
2013-08-14 10:50:00,68.6,65.9,29.80,SSW,193,1.0,15.0,91,0.00,,,0.00,Wunderground v.1.15,2013-08-14 13:50:00,
2013-08-14 10:55:00,68.9,66.2,29.80,SE,135,1.0,15.0,91,0.00,,,0.00,Wunderground v.1.15,2013-08-14 13:55:00,
2013-08-14 11:00:00,69.3,66.2,29.80,SSE,154,1.0,15.0,90,0.00,,,0.00,Wunderground v.1.15,2013-08-14 14:00:00,
2013-08-14 11:05:00,69.5,65.8,29.80,SSW,204,1.0,15.0,88,0.00,,,0.00,Wunderground v.1.15,2013-08-14 14:05:00,
2013-08-14 11:15:00,70.0,65.6,29.79,South,169,2.0,15.0,86,0.00,,,0.00,Wunderground v.1.15,2013-08-14 14:15:00,
2013-08-14 11:20:00,70.6,66.2,29.79,ESE,106,2.0,15.0,86,0.00,,,0.00,Wunderground v.1.15,2013-08-14 14:20:00,
2013-08-14 11:25:00,71.2,66.5,29.76,SSE,148,2.0,15.0,85,0.00,,,0.00,Wunderground v.1.15,2013-08-14 14:25:00,
2013-08-14 11:30:00,71.5,66.8,29.78,SE,138,2.0,15.0,85,0.00,,,0.00,Wunderground v.1.15,2013-08-14 14:30:00,
2013-08-14 11:35:00,71.5,66.4,29.78,SE,126,2.0,15.0,84,0.00,,,0.00,Wunderground v.1.15,2013-08-14 14:35:00,
2013-08-14 11:40:00,71.3,65.9,29.78,SE,125,3.0,15.0,83,0.00,,,0.00,Wunderground v.1.15,2013-08-14 14:40:00,
2013-08-14 11:50:00,71.6,66.2,29.74,ESE,113,4.0,4.0,83,0.00,,,0.00,Wunderground v.1.15,2013-08-14 14:50:00,
2013-08-14 11:55:00,71.7,65.9,29.76,East,96,3.0,6.0,82,0.00,,,0.00,Wunderground v.1.15,2013-08-14 14:55:00,
2013-08-14 12:00:00,72.3,66.8,29.76,East,81,4.0,15.0,83,0.00,,,0.00,Wunderground v.1.15,2013-08-14 15:00:00,
2013-08-14 12:05:00,72.5,66.0,29.76,East,97,4.0,15.0,80,0.00,,,0.00,Wunderground v.1.15,2013-08-14 15:05:00,
2013-08-14 12:10:00,72.7,65.8,29.76,East,84,5.0,5.0,79,0.00,,,0.00,Wunderground v.1.15,2013-08-14 15:10:00,
2013-08-14 12:20:00,72.6,65.7,29.77,SSE,148,5.0,5.0,79,0.00,,,0.00,Wunderground v.1.15,2013-08-14 15:20:00,
2013-08-14 12:25:00,72.9,66.0,29.76,SE,139,5.0,15.0,79,0.00,,,0.00,Wunderground v.1.15,2013-08-14 15:25:00,
2013-08-14 12:30:00,73.1,66.2,29.76,SSW,200,5.0,15.0,79,0.00,,,0.00,Wunderground v.1.15,2013-08-14 15:30:00,
2013-08-14 12:35:00,73.2,66.3,29.77,SSE,150,5.0,15.0,79,0.00,,,0.00,Wunderground v.1.15,2013-08-14 15:35:00,
2013-08-14 12:40:00,73.2,66.3,29.77,SE,138,5.0,15.0,79,0.00,,,0.00,Wunderground v.1.15,2013-08-14 15:40:00,
2013-08-14 12:45:00,73.5,65.8,29.76,SW,218,6.0,15.0,77,0.00,,,0.00,Wunderground v.1.15,2013-08-14 15:45:00,
2013-08-14 12:55:00,73.2,65.6,29.76,SSE,167,6.0,15.0,77,0.00,,,0.00,Wunderground v.1.15,2013-08-14 15:55:00,
2013-08-14 13:00:00,73.1,65.8,29.75,SE,129,6.0,15.0,78,0.00,,,0.00,Wunderground v.1.15,2013-08-14 16:00:00,
2013-08-14 13:05:00,73.0,65.7,29.75,SSE,153,5.0,15.0,78,0.00,,,0.00,Wunderground v.1.15,2013-08-14 16:05:00,
2013-08-14 13:10:00,73.0,65.4,29.75,SSE,160,5.0,15.0,77,0.00,,,0.00,Wunderground v.1.15,2013-08-14 16:10:00,
2013-08-14 13:15:00,73.1,65.8,29.75,South,179,5.0,15.0,78,0.00,,,0.00,Wunderground v.1.15,2013-08-14 16:15:00,
2013-08-14 13:25:00,73.9,66.6,29.74,South,172,4.0,15.0,78,0.00,,,0.00,Wunderground v.1.15,2013-08-14 16:25:00,
2013-08-14 13:30:00,74.2,66.1,29.74,South,185,4.0,4.0,76,0.00,,,0.00,Wunderground v.1.15,2013-08-14 16:30:00,
2013-08-14 13:35:00,74.3,66.2,29.75,South,186,4.0,15.0,76,0.00,,,0.00,Wunderground v.1.15,2013-08-14 16:35:00,
2013-08-14 13:40:00,74.6,66.5,29.75,SSE,158,4.0,15.0,76,0.00,,,0.00,Wunderground v.1.15,2013-08-14 16:40:00,
2013-08-14 13:45:00,75.1,67.0,29.75,South,175,4.0,15.0,76,0.00,,,0.00,Wunderground v.1.15,2013-08-14 16:45:00,
2013-08-14 13:50:00,75.5,66.6,29.75,SE,132,4.0,15.0,74,0.00,,,0.00,Wunderground v.1.15,2013-08-14 16:50:00,
2013-08-14 14:05:00,76.3,67.8,29.74,SSW,207,4.0,15.0,75,0.00,,,0.00,Wunderground v.1.15,2013-08-14 17:05:00,
2013-08-14 14:10:00,76.2,67.7,29.74,SSW,204,5.0,15.0,75,0.00,,,0.00,Wunderground v.1.15,2013-08-14 17:10:00,
2013-08-14 14:15:00,76.5,67.6,29.74,SSW,200,5.0,15.0,74,0.00,,,0.00,Wunderground v.1.15,2013-08-14 17:15:00,
2013-08-14 14:20:00,76.6,66.9,29.71,SSW,198,5.0,15.0,72,0.00,,,0.00,Wunderground v.1.15,2013-08-14 17:20:00,
2013-08-14 14:25:00,76.5,67.6,29.74,South,179,6.0,15.0,74,0.00,,,0.00,Wunderground v.1.15,2013-08-14 17:25:00,
2013-08-14 14:35:00,76.8,67.5,29.73,SSE,148,6.0,15.0,73,0.00,,,0.00,Wunderground v.1.15,2013-08-14 17:35:00,
2013-08-14 14:40:00,77.0,67.3,29.70,SSE,166,6.0,6.0,72,0.00,,,0.00,Wunderground v.1.15,2013-08-14 17:40:00,
2013-08-14 14:45:00,77.1,67.8,29.73,South,191,5.0,15.0,73,0.00,,,0.00,Wunderground v.1.15,2013-08-14 17:45:00,
2013-08-14 14:50:00,77.6,68.7,29.70,SSW,204,5.0,5.0,74,0.00,,,0.00,Wunderground v.1.15,2013-08-14 17:50:00,
2013-08-14 14:55:00,78.0,69.0,29.73,ESE,119,4.0,6.0,74,0.00,,,0.00,Wunderground v.1.15,2013-08-14 17:55:00,
2013-08-14 15:00:00,77.9,68.1,29.69,ESE,122,4.0,15.0,72,0.00,,,0.00,Wunderground v.1.15,2013-08-14 18:00:00,
2013-08-14 15:10:00,77.9,68.9,29.69,South,177,5.0,5.0,74,0.00,,,0.00,Wunderground v.1.15,2013-08-14 18:10:00,
2013-08-14 15:15:00,78.1,68.7,29.69,South,180,5.0,7.0,73,0.00,,,0.00,Wunderground v.1.15,2013-08-14 18:15:00,
2013-08-14 15:25:00,77.9,68.1,29.68,South,191,5.0,7.0,72,0.00,,,0.00,Wunderground v.1.15,2013-08-14 18:25:00,
2013-08-14 15:30:00,77.9,68.1,29.68,SE,124,6.0,6.0,72,0.00,,,0.00,Wunderground v.1.15,2013-08-14 18:30:00,
2013-08-14 15:35:00,77.9,68.1,29.68,SSW,198,6.0,15.0,72,0.00,,,0.00,Wunderground v.1.15,2013-08-14 18:35:00,
2013-08-14 15:40:00,77.9,68.1,29.67,SE,143,5.0,5.0,72,0.00,,,0.00,Wunderground v.1.15,2013-08-14 18:40:00,
2013-08-14 15:50:00,78.2,68.8,29.67,SSW,199,4.0,15.0,73,0.00,,,0.00,Wunderground v.1.15,2013-08-14 18:50:00,
2013-08-14 15:55:00,77.9,68.9,29.67,SSW,192,5.0,15.0,74,0.00,,,0.00,Wunderground v.1.15,2013-08-14 18:55:00,
2013-08-14 16:00:00,77.6,68.3,29.67,ESE,121,5.0,15.0,73,0.00,,,0.00,Wunderground v.1.15,2013-08-14 19:00:00,
2013-08-14 16:15:00,76.8,68.3,29.69,SW,225,5.0,15.0,75,0.00,,,0.00,Wunderground v.1.15,2013-08-14 19:15:00,
2013-08-14 16:20:00,76.8,68.3,29.69,SSE,163,5.0,5.0,75,0.00,,,0.00,Wunderground v.1.15,2013-08-14 19:20:00,
2013-08-14 16:30:00,76.6,68.5,29.69,SSW,202,5.0,15.0,76,0.00,,,0.00,Wunderground v.1.15,2013-08-14 19:30:00,
2013-08-14 16:35:00,76.3,68.2,29.69,South,186,5.0,15.0,76,0.00,,,0.00,Wunderground v.1.15,2013-08-14 19:35:00,
2013-08-14 16:40:00,76.3,68.2,29.69,SE,124,4.0,15.0,76,0.00,,,0.00,Wunderground v.1.15,2013-08-14 19:40:00,
2013-08-14 16:45:00,76.3,68.2,29.69,SSW,200,4.0,15.0,76,0.00,,,0.00,Wunderground v.1.15,2013-08-14 19:45:00,
2013-08-14 16:50:00,76.1,68.4,29.66,South,190,4.0,15.0,77,0.00,,,0.00,Wunderground v.1.15,2013-08-14 19:50:00,
2013-08-14 16:55:00,76.1,68.4,29.66,SSE,166,4.0,15.0,77,0.00,,,0.00,Wunderground v.1.15,2013-08-14 19:55:00,
2013-08-14 17:10:00,75.7,68.0,29.68,SSE,154,4.0,4.0,77,0.00,,,0.00,Wunderground v.1.15,2013-08-14 20:10:00,
2013-08-14 17:15:00,75.6,68.3,29.68,SSE,158,4.0,15.0,78,0.00,,,0.00,Wunderground v.1.15,2013-08-14 20:15:00,
2013-08-14 17:35:00,74.8,68.2,29.68,SE,146,5.0,15.0,80,0.00,,,0.00,Wunderground v.1.15,2013-08-14 20:35:00,
2013-08-14 17:40:00,74.6,68.0,29.68,South,188,5.0,15.0,80,0.00,,,0.00,Wunderground v.1.15,2013-08-14 20:40:00,
2013-08-14 17:50:00,74.5,68.6,29.67,SSE,162,4.0,4.0,82,0.00,,,0.00,Wunderground v.1.15,2013-08-14 20:50:00,
2013-08-14 17:55:00,74.5,68.3,29.67,SSW,193,3.0,15.0,81,0.00,,,0.00,Wunderground v.1.15,2013-08-14 20:55:00,
2013-08-14 18:00:00,74.7,68.8,29.67,SE,146,3.0,15.0,82,0.00,,,0.00,Wunderground v.1.15,2013-08-14 21:00:00,
2013-08-14 18:05:00,74.9,68.7,29.67,SSE,153,4.0,15.0,81,0.00,,,0.00,Wunderground v.1.15,2013-08-14 21:05:00,
2013-08-14 18:10:00,75.0,68.8,29.67,ESE,122,4.0,15.0,81,0.00,,,0.00,Wunderground v.1.15,2013-08-14 21:10:00,
2013-08-14 18:15:00,74.9,68.7,29.67,ESE,114,4.0,15.0,81,0.00,,,0.00,Wunderground v.1.15,2013-08-14 21:15:00,
2013-08-14 18:20:00,74.6,68.4,29.67,SSE,156,4.0,15.0,81,0.00,,,0.00,Wunderground v.1.15,2013-08-14 21:20:00,
2013-08-14 18:30:00,74.0,68.2,29.66,South,183,4.0,4.0,82,0.00,,,0.00,Wunderground v.1.15,2013-08-14 21:30:00,
2013-08-14 18:35:00,74.0,68.2,29.67,SSW,197,3.0,15.0,82,0.00,,,0.00,Wunderground v.1.15,2013-08-14 21:35:00,
2013-08-14 18:40:00,73.8,68.0,29.67,South,180,4.0,15.0,82,0.00,,,0.00,Wunderground v.1.15,2013-08-14 21:40:00,
2013-08-14 18:45:00,73.6,67.8,29.67,SSE,150,4.0,15.0,82,0.00,,,0.00,Wunderground v.1.15,2013-08-14 21:45:00,
2013-08-14 18:50:00,73.3,67.8,29.67,SSW,203,4.0,15.0,83,0.00,,,0.00,Wunderground v.1.15,2013-08-14 21:50:00,
2013-08-14 19:00:00,72.7,67.9,29.67,South,191,4.0,4.0,85,0.00,,,0.00,Wunderground v.1.15,2013-08-14 22:00:00,
2013-08-14 19:05:00,72.5,68.1,29.67,SE,132,4.0,15.0,86,0.00,,,0.00,Wunderground v.1.15,2013-08-14 22:05:00,
2013-08-14 19:10:00,72.2,67.8,29.66,SSW,205,4.0,4.0,86,0.00,,,0.00,Wunderground v.1.15,2013-08-14 22:10:00,
2013-08-14 19:15:00,72.0,67.9,29.66,SSW,197,4.0,5.0,87,0.00,,,0.00,Wunderground v.1.15,2013-08-14 22:15:00,
2013-08-14 19:20:00,72.0,67.9,29.67,SSW,208,4.0,15.0,87,0.00,,,0.00,Wunderground v.1.15,2013-08-14 22:20:00,
2013-08-14 19:30:00,72.2,68.1,29.66,South,170,4.0,15.0,87,0.00,,,0.00,Wunderground v.1.15,2013-08-14 22:30:00,
2013-08-14 19:35:00,72.4,68.6,29.66,SW,219,4.0,15.0,88,0.00,,,0.00,Wunderground v.1.15,2013-08-14 22:35:00,
2013-08-14 19:40:00,72.5,68.4,29.67,ESE,114,4.0,4.0,87,0.00,,,0.00,Wunderground v.1.15,2013-08-14 22:40:00,
2013-08-14 19:45:00,72.6,68.5,29.67,SSW,203,4.0,15.0,87,0.00,,,0.00,Wunderground v.1.15,2013-08-14 22:45:00,
2013-08-14 19:55:00,72.4,68.3,29.67,South,184,4.0,15.0,87,0.00,,,0.00,Wunderground v.1.15,2013-08-14 22:55:00,
2013-08-14 20:00:00,72.4,68.6,29.67,SE,144,4.0,4.0,88,0.00,,,0.00,Wunderground v.1.15,2013-08-14 23:00:00,
2013-08-14 20:10:00,71.7,68.3,29.68,WSW,240,5.0,15.0,89,0.57,,,0.09,Wunderground v.1.15,2013-08-14 23:10:00,
2013-08-14 20:15:00,70.6,66.9,29.67,South,179,7.0,15.0,88,0.15,,,0.11,Wunderground v.1.15,2013-08-14 23:15:00,
2013-08-14 20:20:00,69.9,66.5,29.68,South,183,6.0,15.0,89,0.19,,,0.13,Wunderground v.1.15,2013-08-14 23:20:00,
2013-08-14 20:25:00,69.4,66.7,29.67,SSW,211,6.0,15.0,91,0.11,,,0.13,Wunderground v.1.15,2013-08-14 23:25:00,
2013-08-14 20:30:00,69.2,66.5,29.67,SSW,211,6.0,15.0,91,0.06,,,0.13,Wunderground v.1.15,2013-08-14 23:30:00,
2013-08-14 20:40:00,68.8,66.4,29.68,SSW,207,6.0,6.0,92,0.00,,,0.13,Wunderground v.1.15,2013-08-14 23:40:00,
2013-08-14 20:45:00,68.7,66.3,29.68,ESE,103,5.0,10.0,92,0.00,,,0.13,Wunderground v.1.15,2013-08-14 23:45:00,
2013-08-14 20:50:00,68.6,65.9,29.68,SW,217,6.0,15.0,91,0.00,,,0.13,Wunderground v.1.15,2013-08-14 23:50:00,
2013-08-14 20:55:00,68.4,65.7,29.68,WSW,243,6.0,15.0,91,0.00,,,0.13,Wunderground v.1.15,2013-08-14 23:55:00,
2013-08-14 21:00:00,68.3,65.6,29.68,SSE,162,6.0,6.0,91,0.00,,,0.13,Wunderground v.1.15,2013-08-15 00:00:00,
2013-08-14 21:05:00,68.1,65.4,29.69,South,170,6.0,12.0,91,0.00,,,0.13,Wunderground v.1.15,2013-08-15 00:05:00,
2013-08-14 21:15:00,67.8,64.8,29.69,South,187,8.0,8.0,90,0.00,,,0.13,Wunderground v.1.15,2013-08-15 00:15:00,
2013-08-14 21:20:00,67.6,64.6,29.69,South,185,7.0,7.0,90,0.00,,,0.13,Wunderground v.1.15,2013-08-15 00:20:00,
2013-08-14 21:25:00,67.5,64.8,29.70,SE,131,6.0,15.0,91,0.00,,,0.13,Wunderground v.1.15,2013-08-15 00:25:00,
2013-08-14 21:30:00,67.4,64.7,29.70,SSW,200,6.0,6.0,91,0.00,,,0.13,Wunderground v.1.15,2013-08-15 00:30:00,
2013-08-14 21:35:00,67.2,64.5,29.70,SE,139,5.0,15.0,91,0.00,,,0.13,Wunderground v.1.15,2013-08-15 00:35:00,
2013-08-14 21:40:00,67.0,64.3,29.71,South,171,5.0,5.0,91,0.00,,,0.13,Wunderground v.1.15,2013-08-15 00:40:00,
2013-08-14 21:45:00,66.8,64.1,29.71,SSW,193,5.0,8.0,91,0.00,,,0.13,Wunderground v.1.15,2013-08-15 00:45:00,
2013-08-14 21:55:00,66.5,63.8,29.72,SSE,159,4.0,15.0,91,0.00,,,0.13,Wunderground v.1.15,2013-08-15 00:55:00,
2013-08-14 22:00:00,66.4,63.7,29.71,SSW,207,3.0,15.0,91,0.00,,,0.13,Wunderground v.1.15,2013-08-15 01:00:00,
2013-08-14 22:05:00,66.1,63.4,29.71,SSW,211,3.0,15.0,91,0.00,,,0.13,Wunderground v.1.15,2013-08-15 01:05:00,
2013-08-14 22:10:00,65.7,63.0,29.71,SW,224,2.0,15.0,91,0.00,,,0.13,Wunderground v.1.15,2013-08-15 01:10:00,
2013-08-14 22:15:00,65.4,63.0,29.71,SSE,165,2.0,15.0,92,0.00,,,0.13,Wunderground v.1.15,2013-08-15 01:15:00,
2013-08-14 22:20:00,65.0,62.6,29.71,South,186,2.0,2.0,92,0.00,,,0.13,Wunderground v.1.15,2013-08-15 01:20:00,
2013-08-14 22:25:00,64.7,62.3,29.71,South,190,2.0,15.0,92,0.00,,,0.13,Wunderground v.1.15,2013-08-15 01:25:00,
2013-08-14 22:30:00,64.4,62.3,29.71,South,186,2.0,15.0,93,0.00,,,0.13,Wunderground v.1.15,2013-08-15 01:30:00,
2013-08-14 22:40:00,63.9,61.8,29.71,SSW,201,3.0,15.0,93,0.00,,,0.13,Wunderground v.1.15,2013-08-15 01:40:00,
2013-08-14 22:50:00,63.6,61.5,29.71,SSW,197,3.0,15.0,93,0.00,,,0.13,Wunderground v.1.15,2013-08-15 01:50:00,
2013-08-14 22:55:00,63.4,61.6,29.71,SSW,204,3.0,15.0,94,0.00,,,0.13,Wunderground v.1.15,2013-08-15 01:55:00,
2013-08-14 23:00:00,63.3,61.5,29.71,South,184,4.0,4.0,94,0.00,,,0.13,Wunderground v.1.15,2013-08-15 02:00:00,
2013-08-14 23:05:00,63.2,61.4,29.71,South,170,4.0,15.0,94,0.00,,,0.13,Wunderground v.1.15,2013-08-15 02:05:00,
2013-08-14 23:10:00,63.2,61.4,29.71,South,188,4.0,4.0,94,0.00,,,0.13,Wunderground v.1.15,2013-08-15 02:10:00,
2013-08-14 23:15:00,63.0,61.2,29.71,SSW,193,3.0,15.0,94,0.00,,,0.13,Wunderground v.1.15,2013-08-15 02:15:00,
2013-08-14 23:25:00,62.7,60.9,29.71,South,176,1.0,15.0,94,0.00,,,0.13,Wunderground v.1.15,2013-08-15 02:25:00,
2013-08-14 23:30:00,62.5,60.7,29.72,South,179,1.0,1.0,94,0.00,,,0.13,Wunderground v.1.15,2013-08-15 02:30:00,
2013-08-14 23:35:00,62.3,60.6,29.72,South,186,1.0,15.0,94,0.00,,,0.13,Wunderground v.1.15,2013-08-15 02:35:00,
2013-08-14 23:40:00,62.2,60.8,29.72,SSW,192,0.0,15.0,95,0.00,,,0.13,Wunderground v.1.15,2013-08-15 02:40:00,
2013-08-14 23:45:00,62.2,60.8,29.72,SW,214,1.0,15.0,95,0.00,,,0.13,Wunderground v.1.15,2013-08-15 02:45:00,
2013-08-14 23:50:00,62.2,60.8,29.72,SW,222,1.0,15.0,95,0.00,,,0.13,Wunderground v.1.15,2013-08-15 02:50:00,
2013-08-14 23:55:00,62.2,60.8,29.72,SSW,208,1.0,15.0,95,0.00,,,0.13,Wunderground v.1.15,2013-08-15 02:55:00,